sensor_id;sensor_type;location;lat;lon;timestamp;P1;durP1;ratioP1;P2;durP2;ratioP2
44358;SDS011;30077;52.474;13.326;2023-09-18T00:09:51;12.95;;;11.65;;
44358;SDS011;30077;52.474;13.326;2023-09-18T00:19:52;16.60;;;11.90;;
44358;SDS011;30077;52.474;13.326;2023-09-18T00:29:54;13.18;;;11.52;;
44358;SDS011;30077;52.474;13.326;2023-09-18T00:39:54;11.63;;;10.43;;
44358;SDS011;30077;52.474;13.326;2023-09-18T00:49:55;13.07;;;11.10;;
44358;SDS011;30077;52.474;13.326;2023-09-18T00:59:56;12.18;;;10.52;;
44358;SDS011;30077;52.474;13.326;2023-09-18T01:09:57;11.60;;;9.93;;
44358;SDS011;30077;52.474;13.326;2023-09-18T01:19:58;11.00;;;9.85;;
44358;SDS011;30077;52.474;13.326;2023-09-18T01:29:58;12.73;;;11.20;;
44358;SDS011;30077;52.474;13.326;2023-09-18T01:39:59;14.23;;;11.15;;
44358;SDS011;30077;52.474;13.326;2023-09-18T01:50:03;12.77;;;11.32;;
44358;SDS011;30077;52.474;13.326;2023-09-18T02:00:06;13.00;;;10.40;;
44358;SDS011;30077;52.474;13.326;2023-09-18T02:10:08;12.73;;;10.98;;
44358;SDS011;30077;52.474;13.326;2023-09-18T02:20:09;11.95;;;10.50;;
44358;SDS011;30077;52.474;13.326;2023-09-18T02:30:11;14.13;;;12.18;;
44358;SDS011;30077;52.474;13.326;2023-09-18T02:40:12;11.98;;;10.70;;
44358;SDS011;30077;52.474;13.326;2023-09-18T02:50:13;12.38;;;11.07;;
44358;SDS011;30077;52.474;13.326;2023-09-18T03:00:14;14.07;;;11.33;;
44358;SDS011;30077;52.474;13.326;2023-09-18T03:10:15;12.10;;;10.80;;
44358;SDS011;30077;52.474;13.326;2023-09-18T03:20:16;13.40;;;12.00;;
44358;SDS011;30077;52.474;13.326;2023-09-18T03:30:17;12.50;;;10.63;;
44358;SDS011;30077;52.474;13.326;2023-09-18T03:40:19;12.68;;;11.23;;
44358;SDS011;30077;52.474;13.326;2023-09-18T03:50:20;14.00;;;11.57;;
44358;SDS011;30077;52.474;13.326;2023-09-18T04:00:21;14.35;;;12.13;;
44358;SDS011;30077;52.474;13.326;2023-09-18T04:10:23;13.60;;;11.35;;
44358;SDS011;30077;52.474;13.326;2023-09-18T04:20:23;16.02;;;11.45;;
44358;SDS011;30077;52.474;13.326;2023-09-18T04:30:24;13.97;;;11.67;;
44358;SDS011;30077;52.474;13.326;2023-09-18T04:40:25;13.50;;;11.35;;
44358;SDS011;30077;52.474;13.326;2023-09-18T04:50:32;15.35;;;12.20;;
44358;SDS011;30077;52.474;13.326;2023-09-18T05:00:33;20.88;;;12.02;;
44358;SDS011;30077;52.474;13.326;2023-09-18T05:10:34;12.77;;;11.37;;
44358;SDS011;30077;52.474;13.326;2023-09-18T05:20:35;14.35;;;11.13;;
44358;SDS011;30077;52.474;13.326;2023-09-18T05:30:36;12.82;;;10.82;;
44358;SDS011;30077;52.474;13.326;2023-09-18T05:40:39;14.85;;;11.35;;
44358;SDS011;30077;52.474;13.326;2023-09-18T05:50:41;16.00;;;11.32;;
44358;SDS011;30077;52.474;13.326;2023-09-18T06:00:41;15.40;;;10.50;;
44358;SDS011;30077;52.474;13.326;2023-09-18T06:10:42;11.87;;;9.93;;
44358;SDS011;30077;52.474;13.326;2023-09-18T06:20:43;13.05;;;10.68;;
44358;SDS011;30077;52.474;13.326;2023-09-18T06:30:44;13.65;;;9.82;;
44358;SDS011;30077;52.474;13.326;2023-09-18T06:40:46;16.50;;;10.80;;
44358;SDS011;30077;52.474;13.326;2023-09-18T06:50:47;17.25;;;10.82;;
44358;SDS011;30077;52.474;13.326;2023-09-18T07:00:48;12.50;;;10.03;;
44358;SDS011;30077;52.474;13.326;2023-09-18T07:10:50;10.70;;;9.55;;
44358;SDS011;30077;52.474;13.326;2023-09-18T07:20:51;10.82;;;9.48;;
44358;SDS011;30077;52.474;13.326;2023-09-18T07:30:54;12.80;;;8.02;;
44358;SDS011;30077;52.474;13.326;2023-09-18T07:40:54;13.47;;;8.67;;
44358;SDS011;30077;52.474;13.326;2023-09-18T07:50:56;10.02;;;8.20;;
44358;SDS011;30077;52.474;13.326;2023-09-18T08:00:56;10.43;;;8.60;;
44358;SDS011;30077;52.474;13.326;2023-09-18T08:10:57;10.90;;;8.52;;
44358;SDS011;30077;52.474;13.326;2023-09-18T08:20:58;10.70;;;8.05;;
44358;SDS011;30077;52.474;13.326;2023-09-18T08:31:00;10.60;;;7.45;;
44358;SDS011;30077;52.474;13.326;2023-09-18T08:41:01;14.35;;;8.07;;
44358;SDS011;30077;52.474;13.326;2023-09-18T08:51:04;14.90;;;9.65;;
44358;SDS011;30077;52.474;13.326;2023-09-18T09:01:06;8.45;;;7.50;;
44358;SDS011;30077;52.474;13.326;2023-09-18T09:11:09;12.00;;;6.93;;
44358;SDS011;30077;52.474;13.326;2023-09-18T09:21:10;8.68;;;7.18;;
44358;SDS011;30077;52.474;13.326;2023-09-18T09:31:11;8.07;;;6.47;;
44358;SDS011;30077;52.474;13.326;2023-09-18T09:41:28;9.95;;;6.10;;
44358;SDS011;30077;52.474;13.326;2023-09-18T09:51:34;6.82;;;6.22;;
44358;SDS011;30077;52.474;13.326;2023-09-18T10:01:35;7.57;;;6.05;;
44358;SDS011;30077;52.474;13.326;2023-09-18T10:11:43;14.90;;;11.88;;
44358;SDS011;30077;52.474;13.326;2023-09-18T10:22:06;8.95;;;6.15;;
44358;SDS011;30077;52.474;13.326;2023-09-18T10:32:20;8.90;;;6.18;;
44358;SDS011;30077;52.474;13.326;2023-09-18T10:42:22;6.13;;;5.47;;
44358;SDS011;30077;52.474;13.326;2023-09-18T10:52:23;6.47;;;5.75;;
44358;SDS011;30077;52.474;13.326;2023-09-18T11:02:24;9.50;;;6.38;;
44358;SDS011;30077;52.474;13.326;2023-09-18T11:12:44;7.27;;;6.13;;
44358;SDS011;30077;52.474;13.326;2023-09-18T11:33:02;6.95;;;6.25;;
44358;SDS011;30077;52.474;13.326;2023-09-18T11:53:28;7.35;;;6.47;;
44358;SDS011;30077;52.474;13.326;2023-09-18T12:03:29;7.17;;;6.40;;
44358;SDS011;30077;52.474;13.326;2023-09-18T12:13:31;19.27;;;14.95;;
44358;SDS011;30077;52.474;13.326;2023-09-18T12:23:38;7.00;;;5.80;;
44358;SDS011;30077;52.474;13.326;2023-09-18T12:33:40;8.82;;;5.93;;
44358;SDS011;30077;52.474;13.326;2023-09-18T12:43:43;9.37;;;5.40;;
44358;SDS011;30077;52.474;13.326;2023-09-18T12:53:45;7.75;;;5.78;;
44358;SDS011;30077;52.474;13.326;2023-09-18T13:03:46;6.23;;;5.50;;
44358;SDS011;30077;52.474;13.326;2023-09-18T13:13:47;9.63;;;5.97;;
44358;SDS011;30077;52.474;13.326;2023-09-18T13:23:57;6.40;;;5.78;;
44358;SDS011;30077;52.474;13.326;2023-09-18T13:33:59;8.10;;;6.15;;
44358;SDS011;30077;52.474;13.326;2023-09-18T13:44:00;11.50;;;7.30;;
44358;SDS011;30077;52.474;13.326;2023-09-18T13:54:00;10.67;;;6.93;;
44358;SDS011;30077;52.474;13.326;2023-09-18T14:04:03;9.73;;;6.22;;
44358;SDS011;30077;52.474;13.326;2023-09-18T14:14:04;12.63;;;6.13;;
44358;SDS011;30077;52.474;13.326;2023-09-18T14:24:05;10.67;;;5.53;;
44358;SDS011;30077;52.474;13.326;2023-09-18T14:34:06;9.02;;;5.35;;
44358;SDS011;30077;52.474;13.326;2023-09-18T14:44:08;7.05;;;4.20;;
44358;SDS011;30077;52.474;13.326;2023-09-18T14:54:10;12.65;;;4.18;;
44358;SDS011;30077;52.474;13.326;2023-09-18T15:04:10;11.05;;;6.50;;
44358;SDS011;30077;52.474;13.326;2023-09-18T15:14:11;10.17;;;4.00;;
44358;SDS011;30077;52.474;13.326;2023-09-18T15:24:12;10.23;;;3.90;;
44358;SDS011;30077;52.474;13.326;2023-09-18T15:34:12;11.48;;;4.97;;
44358;SDS011;30077;52.474;13.326;2023-09-18T15:44:13;36.67;;;20.30;;
44358;SDS011;30077;52.474;13.326;2023-09-18T15:54:14;10.15;;;4.60;;
44358;SDS011;30077;52.474;13.326;2023-09-18T16:04:17;14.55;;;6.90;;
44358;SDS011;30077;52.474;13.326;2023-09-18T16:14:18;17.92;;;7.30;;
44358;SDS011;30077;52.474;13.326;2023-09-18T16:24:20;12.32;;;5.63;;
44358;SDS011;30077;52.474;13.326;2023-09-18T16:34:21;13.90;;;5.47;;
44358;SDS011;30077;52.474;13.326;2023-09-18T16:44:24;8.27;;;5.53;;
44358;SDS011;30077;52.474;13.326;2023-09-18T16:54:25;28.70;;;6.53;;
44358;SDS011;30077;52.474;13.326;2023-09-18T17:04:25;10.83;;;6.37;;
44358;SDS011;30077;52.474;13.326;2023-09-18T17:14:26;8.25;;;5.25;;
44358;SDS011;30077;52.474;13.326;2023-09-18T17:24:28;23.95;;;16.65;;
44358;SDS011;30077;52.474;13.326;2023-09-18T17:34:30;12.65;;;6.53;;
44358;SDS011;30077;52.474;13.326;2023-09-18T17:44:31;14.20;;;6.55;;
44358;SDS011;30077;52.474;13.326;2023-09-18T17:54:32;9.70;;;5.53;;
44358;SDS011;30077;52.474;13.326;2023-09-18T18:04:32;8.77;;;5.87;;
44358;SDS011;30077;52.474;13.326;2023-09-18T18:14:34;10.65;;;5.60;;
44358;SDS011;30077;52.474;13.326;2023-09-18T18:24:34;9.53;;;5.90;;
44358;SDS011;30077;52.474;13.326;2023-09-18T18:34:35;8.38;;;5.28;;
44358;SDS011;30077;52.474;13.326;2023-09-18T18:44:36;8.47;;;5.33;;
44358;SDS011;30077;52.474;13.326;2023-09-18T18:54:38;8.87;;;4.63;;
44358;SDS011;30077;52.474;13.326;2023-09-18T19:04:40;8.70;;;4.78;;
44358;SDS011;30077;52.474;13.326;2023-09-18T19:14:41;7.75;;;4.80;;
44358;SDS011;30077;52.474;13.326;2023-09-18T19:24:42;7.20;;;4.67;;
44358;SDS011;30077;52.474;13.326;2023-09-18T19:34:44;5.37;;;4.17;;
44358;SDS011;30077;52.474;13.326;2023-09-18T19:44:44;7.15;;;4.40;;
44358;SDS011;30077;52.474;13.326;2023-09-18T19:54:45;9.25;;;4.60;;
44358;SDS011;30077;52.474;13.326;2023-09-18T20:04:46;5.68;;;3.92;;
44358;SDS011;30077;52.474;13.326;2023-09-18T20:14:48;8.65;;;4.30;;
44358;SDS011;30077;52.474;13.326;2023-09-18T20:24:49;8.98;;;4.63;;
44358;SDS011;30077;52.474;13.326;2023-09-18T20:34:49;8.32;;;4.25;;
44358;SDS011;30077;52.474;13.326;2023-09-18T20:44:50;7.80;;;4.17;;
44358;SDS011;30077;52.474;13.326;2023-09-18T20:54:52;7.38;;;4.25;;
44358;SDS011;30077;52.474;13.326;2023-09-18T21:04:53;7.03;;;3.20;;
44358;SDS011;30077;52.474;13.326;2023-09-18T21:14:53;6.50;;;4.27;;
44358;SDS011;30077;52.474;13.326;2023-09-18T21:24:54;9.63;;;3.93;;
44358;SDS011;30077;52.474;13.326;2023-09-18T21:34:55;8.83;;;3.30;;
44358;SDS011;30077;52.474;13.326;2023-09-18T21:44:55;6.57;;;3.20;;
44358;SDS011;30077;52.474;13.326;2023-09-18T21:54:56;6.40;;;3.27;;
44358;SDS011;30077;52.474;13.326;2023-09-18T22:04:56;7.85;;;3.42;;
44358;SDS011;30077;52.474;13.326;2023-09-18T22:14:57;5.07;;;2.80;;
44358;SDS011;30077;52.474;13.326;2023-09-18T22:24:58;6.05;;;3.05;;
44358;SDS011;30077;52.474;13.326;2023-09-18T22:34:59;10.15;;;3.20;;
44358;SDS011;30077;52.474;13.326;2023-09-18T22:55:57;7.72;;;3.80;;
44358;SDS011;30077;52.474;13.326;2023-09-18T23:06:05;6.60;;;2.97;;
44358;SDS011;30077;52.474;13.326;2023-09-18T23:16:06;5.13;;;3.33;;
44358;SDS011;30077;52.474;13.326;2023-09-18T23:26:07;6.60;;;2.88;;
44358;SDS011;30077;52.474;13.326;2023-09-18T23:36:10;4.78;;;2.85;;
44358;SDS011;30077;52.474;13.326;2023-09-18T23:46:11;5.72;;;2.97;;
44358;SDS011;30077;52.474;13.326;2023-09-18T23:56:14;5.00;;;3.05;;
